Time;durP1;ratioP1;P1;durP2;ratioP2;P2;SDS_P1;SDS_P2;PMS_P1;PMS_P2;Temp;Humidity;BMP_temperature;BMP_pressure;BME280_temperature;BME280_humidity;BME280_pressure;Samples;Min_cycle;Max_cycle;Signal;HPM_P1;HPM_P2
2022/11/23 00:00:59;;;;;;;;;;;;;;;;;;4937106;29;19915;-81
2022/11/23 00:03:25;;;;;;;;;;;;;;;;;;4921910;29;19919;-81
2022/11/23 00:05:50;;;;;;;;;;;;;;;;;;4938746;29;19915;-80
2022/11/23 00:08:16;;;;;;;;;;;;;;;;;;4939391;29;19921;-81
2022/11/23 00:10:41;;;;;;;;;;;;;;;;;;4940846;29;20307;-80
2022/11/23 00:13:07;;;;;;;;;;;;;;;;;;4942425;29;19921;-80
2022/11/23 00:15:32;;;;;;;;;;;;;;;;;;4942254;29;19929;-80
2022/11/23 00:17:59;;;;;;;;;;;;;;;;;;4930611;29;20375;-80
2022/11/23 00:20:24;;;;;;;;;;;;;;;;;;4928168;29;19974;-80
2022/11/23 00:22:50;;;;;;;;;;;;;;;;;;4944994;29;19919;-80
2022/11/23 00:25:15;;;;;;;;;;;;;;;;;;4882743;29;1818000;-80
2022/11/23 00:27:40;;;;;;;;;;;;;;;;;;4945720;29;19958;-80
2022/11/23 00:30:08;;;;;;;;;;;;;;;;;;4943841;29;19914;-79
2022/11/23 00:32:33;;;;;;;;;;;;;;;;;;4959260;29;19942;-80
2022/11/23 00:34:58;;;;;;;;;;;;;;;;;;4959875;29;20382;-80
2022/11/23 00:37:24;;;;;;;;;;;;;;;;;;4943049;29;19915;-80
2022/11/23 00:39:49;;;;;;;;;;;;;;;;;;4957317;29;19961;-80
2022/11/23 00:42:14;;;;;;;;;;;;;;;;;;4941942;29;19926;-80
2022/11/23 00:44:40;;;;;;;;;;;;;;;;;;4940128;29;19926;-80
2022/11/23 00:47:05;;;;;;;;;;;;;;;;;;4940584;29;19919;-80
2022/11/23 00:49:32;;;;;;;;;;;;;;;;;;4955271;29;19915;-80
2022/11/23 00:51:58;;;;;;;;;;;;;;;;;;4940020;29;19914;-80
2022/11/23 00:54:24;;;;;;;;;;;;;;;;;;4954794;29;19923;-80
2022/11/23 00:56:49;;;;;;;;;;;;;;;;;;4954065;29;20000;-80
2022/11/23 00:59:14;;;;;;;;;;;;;;;;;;4955482;29;19914;-80
2022/11/23 01:01:40;;;;;;;;;;;;;;;;;;4955397;29;19921;-80
2022/11/23 01:04:06;;;;;;;;;;;;;;;;;;4954351;29;19915;-79
2022/11/23 01:06:32;;;;;;;;;;;;;;;;;;4937784;29;20405;-80
2022/11/23 01:08:57;;;;;;;;;;;;;;;;;;4938808;29;19922;-80
2022/11/23 01:11:23;;;;;;;;;;;;;;;;;;4937686;29;19915;-80
2022/11/23 01:13:48;;;;;;;;;;;;;;;;;;4939447;29;19939;-80
2022/11/23 01:16:13;;;;;;;;;;;;;;;;;;4939961;29;19919;-81
2022/11/23 01:18:39;;;;;;;;;;;;;;;;;;4938585;29;19919;-80
2022/11/23 01:21:04;;;;;;;;;;;;;;;;;;4954702;28;19915;-80
2022/11/23 01:23:29;;;;;;;;;;;;;;;;;;4939199;29;19991;-80
2022/11/23 01:25:55;;;;;;;;;;;;;;;;;;4954608;29;19919;-80
2022/11/23 01:28:20;;;;;;;;;;;;;;;;;;4938261;29;19914;-80
2022/11/23 01:30:46;;;;;;;;;;;;;;;;;;4939320;29;19915;-79
2022/11/23 01:33:11;;;;;;;;;;;;;;;;;;4956684;29;19915;-79
2022/11/23 01:35:36;;;;;;;;;;;;;;;;;;4943211;29;20005;-79
2022/11/23 01:38:02;;;;;;;;;;;;;;;;;;4939988;29;19915;-80
2022/11/23 01:40:27;;;;;;;;;;;;;;;;;;4953164;29;20009;-79
2022/11/23 01:42:53;;;;;;;;;;;;;;;;;;4936414;29;19914;-79
2022/11/23 01:45:18;;;;;;;;;;;;;;;;;;4937630;29;19962;-79
2022/11/23 01:47:43;;;;;;;;;;;;;;;;;;4937821;29;19954;-79
2022/11/23 01:50:09;;;;;;;;;;;;;;;;;;4937524;29;20445;-79
2022/11/23 01:52:34;;;;;;;;;;;;;;;;;;4937373;29;19946;-79
2022/11/23 01:54:59;;;;;;;;;;;;;;;;;;4937648;29;19922;-79
2022/11/23 01:57:25;;;;;;;;;;;;;;;;;;4952744;29;20421;-79
2022/11/23 01:59:50;;;;;;;;;;;;;;;;;;4957799;23;19926;-81
2022/11/23 02:02:16;;;;;;;;;;;;;;;;;;4968445;29;19915;-83
2022/11/23 02:04:41;;;;;;;;;;;;;;;;;;4968407;29;20018;-82
2022/11/23 02:07:06;;;;;;;;;;;;;;;;;;4971098;29;19948;-83
2022/11/23 02:09:32;;;;;;;;;;;;;;;;;;4973758;29;19907;-82
2022/11/23 02:11:57;;;;;;;;;;;;;;;;;;4972392;29;19937;-83
2022/11/23 02:14:23;;;;;;;;;;;;;;;;;;4973264;28;20452;-82
2022/11/23 02:16:52;;;;;;;;;;;;;;;;;;4972924;29;19922;-83
2022/11/23 02:19:18;;;;;;;;;;;;;;;;;;4941854;29;19937;-83
2022/11/23 02:21:43;;;;;;;;;;;;;;;;;;4972506;29;19914;-82
2022/11/23 02:24:11;;;;;;;;;;;;;;;;;;4960573;29;19903;-83
2022/11/23 02:26:37;;;;;;;;;;;;;;;;;;4979944;29;19914;-84
2022/11/23 02:29:03;;;;;;;;;;;;;;;;;;4979960;28;19938;-82
2022/11/23 02:31:29;;;;;;;;;;;;;;;;;;4979704;28;19914;-83
2022/11/23 02:33:55;;;;;;;;;;;;;;;;;;4962367;29;19914;-82
2022/11/23 02:36:21;;;;;;;;;;;;;;;;;;4975621;29;19919;-83
2022/11/23 02:38:46;;;;;;;;;;;;;;;;;;4977718;29;19898;-83
2022/11/23 02:41:12;;;;;;;;;;;;;;;;;;4976812;29;19952;-83
2022/11/23 02:43:37;;;;;;;;;;;;;;;;;;4975254;29;19915;-82
2022/11/23 02:46:03;;;;;;;;;;;;;;;;;;4958504;29;19919;-83
2022/11/23 02:48:28;;;;;;;;;;;;;;;;;;4975136;29;19918;-82
2022/11/23 02:50:54;;;;;;;;;;;;;;;;;;4958475;29;19981;-82
2022/11/23 02:53:20;;;;;;;;;;;;;;;;;;4974991;29;19950;-82
2022/11/23 02:55:45;;;;;;;;;;;;;;;;;;4974204;29;19942;-83
2022/11/23 02:58:11;;;;;;;;;;;;;;;;;;4959823;29;19911;-83
2022/11/23 03:00:36;;;;;;;;;;;;;;;;;;4959155;29;19918;-83
2022/11/23 03:03:02;;;;;;;;;;;;;;;;;;4975674;29;19960;-83
2022/11/23 03:05:28;;;;;;;;;;;;;;;;;;4976435;28;19925;-83
2022/11/23 03:07:53;;;;;;;;;;;;;;;;;;4960402;29;19938;-83
2022/11/23 03:10:19;;;;;;;;;;;;;;;;;;4961310;29;19946;-84
2022/11/23 03:12:47;;;;;;;;;;;;;;;;;;4960309;29;19914;-83
2022/11/23 03:15:16;;;;;;;;;;;;;;;;;;4975951;29;19938;-82
2022/11/23 03:17:42;;;;;;;;;;;;;;;;;;4958102;29;19915;-82
2022/11/23 03:20:13;;;;;;;;;;;;;;;;;;4975571;29;19917;-82
2022/11/23 03:22:42;;;;;;;;;;;;;;;;;;4959806;29;19966;-83
2022/11/23 03:25:09;;;;;;;;;;;;;;;;;;4979251;28;19910;-83
2022/11/23 03:27:35;;;;;;;;;;;;;;;;;;4980711;28;19903;-83
2022/11/23 03:30:01;;;;;;;;;;;;;;;;;;4979088;28;19903;-83
2022/11/23 03:32:30;;;;;;;;;;;;;;;;;;4959821;29;19914;-82
2022/11/23 03:34:56;;;;;;;;;;;;;;;;;;4958639;29;19945;-82
2022/11/23 03:37:21;;;;;;;;;;;;;;;;;;4971475;29;20006;-81
2022/11/23 03:39:47;;;;;;;;;;;;;;;;;;4976406;29;19942;-83
2022/11/23 03:42:31;;;;;;;;;;;;;;;;;;4974329;28;19942;-82
2022/11/23 03:44:56;;;;;;;;;;;;;;;;;;4975505;29;19915;-83
2022/11/23 03:47:22;;;;;;;;;;;;;;;;;;4977596;29;19941;-83
2022/11/23 03:49:48;;;;;;;;;;;;;;;;;;5008924;23;19906;-82
2022/11/23 03:52:13;;;;;;;;;;;;;;;;;;4979175;28;19941;-83
2022/11/23 03:57:23;;;;;;;;;;;;;;;;;;5083523;23;19978;-83
2022/11/23 03:59:48;;;;;;;;;;;;;;;;;;4963358;29;19919;-83
2022/11/23 04:02:14;;;;;;;;;;;;;;;;;;4978071;29;19957;-82
2022/11/23 04:04:47;;;;;;;;;;;;;;;;;;4977252;29;19899;-83
2022/11/23 04:07:31;;;;;;;;;;;;;;;;;;4979324;29;19953;-83
2022/11/23 04:10:00;;;;;;;;;;;;;;;;;;4962235;29;19904;-83
2022/11/23 04:12:46;;;;;;;;;;;;;;;;;;4977266;28;19915;-83
2022/11/23 04:15:12;;;;;;;;;;;;;;;;;;4940264;29;19907;-82
2022/11/23 04:17:38;;;;;;;;;;;;;;;;;;4974208;29;20037;-82
2022/11/23 04:20:03;;;;;;;;;;;;;;;;;;4974780;29;19974;-82
2022/11/23 04:22:29;;;;;;;;;;;;;;;;;;4963373;28;19958;-83
2022/11/23 04:24:54;;;;;;;;;;;;;;;;;;4978034;29;19983;-83
2022/11/23 04:27:20;;;;;;;;;;;;;;;;;;4978802;28;19918;-82
2022/11/23 04:29:46;;;;;;;;;;;;;;;;;;4977378;29;19915;-82
2022/11/23 04:32:12;;;;;;;;;;;;;;;;;;4975091;29;19969;-82
2022/11/23 04:34:37;;;;;;;;;;;;;;;;;;4956398;29;19988;-81
2022/11/23 04:37:03;;;;;;;;;;;;;;;;;;4957044;29;19981;-81
2022/11/23 04:39:35;;;;;;;;;;;;;;;;;;4970840;29;19914;-82
2022/11/23 04:42:18;;;;;;;;;;;;;;;;;;4956616;29;19978;-82
2022/11/23 04:44:50;;;;;;;;;;;;;;;;;;4959050;29;19965;-82
2022/11/23 04:47:16;;;;;;;;;;;;;;;;;;4973244;29;20378;-83
2022/11/23 04:49:44;;;;;;;;;;;;;;;;;;4955677;29;19925;-82
2022/11/23 04:52:09;;;;;;;;;;;;;;;;;;4971548;29;20374;-82
2022/11/23 04:54:43;;;;;;;;;;;;;;;;;;4977157;28;19918;-83
2022/11/23 04:57:12;;;;;;;;;;;;;;;;;;4978239;29;19914;-82
2022/11/23 04:59:38;;;;;;;;;;;;;;;;;;4982105;29;19922;-84
2022/11/23 05:02:04;;;;;;;;;;;;;;;;;;4966041;29;19969;-82
2022/11/23 05:04:52;;;;;;;;;;;;;;;;;;4969530;28;19914;-83
2022/11/23 05:07:19;;;;;;;;;;;;;;;;;;4964525;29;20014;-83
2022/11/23 05:09:51;;;;;;;;;;;;;;;;;;4979409;29;19979;-82
2022/11/23 05:12:19;;;;;;;;;;;;;;;;;;4979965;29;19942;-83
2022/11/23 05:14:45;;;;;;;;;;;;;;;;;;4979608;29;19914;-82
2022/11/23 05:17:14;;;;;;;;;;;;;;;;;;4946948;29;19999;-83
2022/11/23 05:19:40;;;;;;;;;;;;;;;;;;4977110;29;19977;-83
2022/11/23 05:22:06;;;;;;;;;;;;;;;;;;4979434;28;19937;-83
2022/11/23 05:24:34;;;;;;;;;;;;;;;;;;4960784;29;19938;-82
2022/11/23 05:27:06;;;;;;;;;;;;;;;;;;4963897;29;19969;-82
2022/11/23 05:29:32;;;;;;;;;;;;;;;;;;4947355;29;19918;-82
2022/11/23 05:31:57;;;;;;;;;;;;;;;;;;4963068;29;19995;-82
2022/11/23 05:34:23;;;;;;;;;;;;;;;;;;4978627;29;19914;-83
2022/11/23 05:36:48;;;;;;;;;;;;;;;;;;4980096;29;19924;-82
2022/11/23 05:39:15;;;;;;;;;;;;;;;;;;4965644;29;19898;-83
2022/11/23 05:41:42;;;;;;;;;;;;;;;;;;4982423;28;19919;-82
2022/11/23 05:44:21;;;;;;;;;;;;;;;;;;4965884;29;19942;-82
2022/11/23 05:46:47;;;;;;;;;;;;;;;;;;4964440;29;19899;-82
2022/11/23 05:49:13;;;;;;;;;;;;;;;;;;4978705;29;19914;-82
2022/11/23 05:51:39;;;;;;;;;;;;;;;;;;4977475;29;19970;-82
2022/11/23 05:54:04;;;;;;;;;;;;;;;;;;4981257;28;19906;-83
2022/11/23 05:56:37;;;;;;;;;;;;;;;;;;4980173;28;19938;-83
2022/11/23 05:59:06;;;;;;;;;;;;;;;;;;4979989;29;19914;-83
2022/11/23 06:01:34;;;;;;;;;;;;;;;;;;4980366;29;19903;-83
2022/11/23 06:04:02;;;;;;;;;;;;;;;;;;4962260;29;19918;-82
2022/11/23 06:06:32;;;;;;;;;;;;;;;;;;4977202;28;19953;-82
2022/11/23 06:09:01;;;;;;;;;;;;;;;;;;4980147;29;19922;-84
2022/11/23 06:11:26;;;;;;;;;;;;;;;;;;4964455;29;19914;-83
2022/11/23 06:13:55;;;;;;;;;;;;;;;;;;4961608;28;19995;-81
2022/11/23 06:16:20;;;;;;;;;;;;;;;;;;4973993;29;19902;-82
2022/11/23 06:18:57;;;;;;;;;;;;;;;;;;4977676;29;19950;-82
2022/11/23 06:21:25;;;;;;;;;;;;;;;;;;4977026;29;19922;-81
2022/11/23 06:23:51;;;;;;;;;;;;;;;;;;4976468;29;19953;-83
2022/11/23 06:26:17;;;;;;;;;;;;;;;;;;4975405;29;19915;-81
2022/11/23 06:28:42;;;;;;;;;;;;;;;;;;4960157;29;19914;-82
2022/11/23 06:31:08;;;;;;;;;;;;;;;;;;4957410;29;19950;-82
2022/11/23 06:33:36;;;;;;;;;;;;;;;;;;4973590;29;19915;-82
2022/11/23 06:36:02;;;;;;;;;;;;;;;;;;4976030;29;19922;-81
2022/11/23 06:38:36;;;;;;;;;;;;;;;;;;4974211;28;19918;-82
2022/11/23 06:41:07;;;;;;;;;;;;;;;;;;4958163;29;19914;-82
2022/11/23 06:43:33;;;;;;;;;;;;;;;;;;4970968;29;19922;-82
2022/11/23 06:45:59;;;;;;;;;;;;;;;;;;4970780;29;19914;-82
2022/11/23 06:48:27;;;;;;;;;;;;;;;;;;4955242;29;19915;-81
2022/11/23 06:50:55;;;;;;;;;;;;;;;;;;4972818;29;19914;-82
2022/11/23 06:53:22;;;;;;;;;;;;;;;;;;4955754;29;19945;-81
2022/11/23 06:55:54;;;;;;;;;;;;;;;;;;4954583;29;19942;-82
2022/11/23 06:58:20;;;;;;;;;;;;;;;;;;4968855;29;20349;-82
2022/11/23 07:00:45;;;;;;;;;;;;;;;;;;4952929;29;19923;-82
2022/11/23 07:03:12;;;;;;;;;;;;;;;;;;4973619;29;19913;-82
2022/11/23 07:05:41;;;;;;;;;;;;;;;;;;4971662;29;19915;-82
2022/11/23 07:08:07;;;;;;;;;;;;;;;;;;4953966;29;19922;-81
2022/11/23 07:10:32;;;;;;;;;;;;;;;;;;4973322;29;19918;-82
2022/11/23 07:12:59;;;;;;;;;;;;;;;;;;4976796;29;19921;-83
2022/11/23 07:15:25;;;;;;;;;;;;;;;;;;4977548;29;19954;-84
2022/11/23 07:17:51;;;;;;;;;;;;;;;;;;4959599;29;19914;-83
2022/11/23 07:20:18;;;;;;;;;;;;;;;;;;4960456;29;19911;-82
2022/11/23 07:22:45;;;;;;;;;;;;;;;;;;4976811;29;19922;-84
2022/11/23 07:25:15;;;;;;;;;;;;;;;;;;4964235;28;19903;-83
2022/11/23 07:27:40;;;;;;;;;;;;;;;;;;4979718;28;19903;-83
2022/11/23 07:30:06;;;;;;;;;;;;;;;;;;5644117;23;20710;-82
2022/11/23 07:32:32;;;;;;;;;;;;;;;;;;4980382;28;19965;-84
2022/11/23 07:34:58;;;;;;;;;;;;;;;;;;4980268;28;19914;-83
2022/11/23 07:45:30;;;;;;;;;;;;;;;;;;5874033;23;19919;-83
2022/11/23 07:47:58;;;;;;;;;;;;;;;;;;5240132;23;19911;-84
2022/11/23 07:50:23;;;;;;;;;;;;;;;;;;5410778;23;19911;-82
2022/11/23 07:52:49;;;;;;;;;;;;;;;;;;5085618;23;19927;-82
2022/11/23 08:00:38;;;;;;;;;;;;;;;;;;5469143;23;19930;-81
2022/11/23 08:03:03;;;;;;;;;;;;;;;;;;4957939;29;19915;-80
2022/11/23 08:05:28;;;;;;;;;;;;;;;;;;4955810;29;19918;-78
2022/11/23 08:07:54;;;;;;;;;;;;;;;;;;4956575;29;20386;-79
2022/11/23 08:10:19;;;;;;;;;;;;;;;;;;4957933;29;19918;-80
2022/11/23 08:12:45;;;;;;;;;;;;;;;;;;4940413;29;19914;-80
2022/11/23 08:15:10;;;;;;;;;;;;;;;;;;4957923;29;20005;-78
2022/11/23 08:17:36;;;;;;;;;;;;;;;;;;4956340;29;19918;-80
2022/11/23 08:20:01;;;;;;;;;;;;;;;;;;4941058;29;19969;-79
2022/11/23 08:22:26;;;;;;;;;;;;;;;;;;4961392;29;19914;-79
2022/11/23 08:24:52;;;;;;;;;;;;;;;;;;4961362;29;19938;-78
2022/11/23 08:27:17;;;;;;;;;;;;;;;;;;4942605;29;20321;-79
2022/11/23 08:29:43;;;;;;;;;;;;;;;;;;4939132;29;19961;-80
2022/11/23 08:32:08;;;;;;;;;;;;;;;;;;4958349;29;19914;-79
2022/11/23 08:34:34;;;;;;;;;;;;;;;;;;4961452;28;19922;-80
2022/11/23 08:36:59;;;;;;;;;;;;;;;;;;4961728;29;19922;-80
2022/11/23 08:39:27;;;;;;;;;;;;;;;;;;4943580;29;20062;-80
2022/11/23 08:41:52;;;;;;;;;;;;;;;;;;4961634;28;19914;-80
2022/11/23 08:44:18;;;;;;;;;;;;;;;;;;4959153;29;20009;-79
2022/11/23 08:46:43;;;;;;;;;;;;;;;;;;4958746;29;19915;-79
2022/11/23 08:49:08;;;;;;;;;;;;;;;;;;4959391;29;19921;-79
2022/11/23 08:51:34;;;;;;;;;;;;;;;;;;4958576;29;20283;-79
2022/11/23 08:53:59;;;;;;;;;;;;;;;;;;4958565;29;19922;-79
2022/11/23 08:56:25;;;;;;;;;;;;;;;;;;4958985;29;20374;-80
2022/11/23 08:58:50;;;;;;;;;;;;;;;;;;4959932;29;19949;-80
2022/11/23 09:01:15;;;;;;;;;;;;;;;;;;4961795;29;20271;-80
2022/11/23 09:03:41;;;;;;;;;;;;;;;;;;4959689;28;19922;-80
2022/11/23 09:06:06;;;;;;;;;;;;;;;;;;4960006;29;19970;-79
2022/11/23 09:08:32;;;;;;;;;;;;;;;;;;4958782;29;20355;-79
2022/11/23 09:10:57;;;;;;;;;;;;;;;;;;4960551;29;19918;-79
2022/11/23 09:13:22;;;;;;;;;;;;;;;;;;4959326;29;20005;-79
2022/11/23 09:15:48;;;;;;;;;;;;;;;;;;4957689;29;19918;-79
2022/11/23 09:18:13;;;;;;;;;;;;;;;;;;4958564;29;19914;-79
2022/11/23 09:20:39;;;;;;;;;;;;;;;;;;4958824;28;19915;-79
2022/11/23 09:23:04;;;;;;;;;;;;;;;;;;4957899;29;19918;-80
2022/11/23 09:25:30;;;;;;;;;;;;;;;;;;4958605;29;19918;-80
2022/11/23 09:27:55;;;;;;;;;;;;;;;;;;4959011;29;19941;-79
2022/11/23 09:30:21;;;;;;;;;;;;;;;;;;4958032;29;20366;-79
2022/11/23 09:32:46;;;;;;;;;;;;;;;;;;4957080;29;19914;-78
2022/11/23 09:35:12;;;;;;;;;;;;;;;;;;4972436;28;20416;-83
2022/11/23 09:37:38;;;;;;;;;;;;;;;;;;4948260;28;19925;-84
2022/11/23 09:40:06;;;;;;;;;;;;;;;;;;4965141;29;19954;-84
2022/11/23 09:42:33;;;;;;;;;;;;;;;;;;4979376;28;19911;-84
2022/11/23 09:45:00;;;;;;;;;;;;;;;;;;4982067;28;19922;-84
2022/11/23 09:52:57;;;;;;;;;;;;;;;;;;5643102;23;19914;-83
2022/11/23 09:55:30;;;;;;;;;;;;;;;;;;5718200;23;19963;-83
2022/11/23 10:00:37;;;;;;;;;;;;;;;;;;5299586;23;20016;-81
2022/11/23 10:03:03;;;;;;;;;;;;;;;;;;4978843;29;19915;-82
2022/11/23 10:05:31;;;;;;;;;;;;;;;;;;4977533;29;19902;-82
2022/11/23 10:07:56;;;;;;;;;;;;;;;;;;5067360;23;19926;-81
2022/11/23 10:10:22;;;;;;;;;;;;;;;;;;4946520;29;19915;-82
2022/11/23 10:12:48;;;;;;;;;;;;;;;;;;4947279;29;20239;-81
2022/11/23 10:15:13;;;;;;;;;;;;;;;;;;4931956;29;19914;-82
2022/11/23 10:17:38;;;;;;;;;;;;;;;;;;4932053;29;20441;-82
2022/11/23 10:20:04;;;;;;;;;;;;;;;;;;4951404;28;19909;-84
2022/11/23 10:22:29;;;;;;;;;;;;;;;;;;4944755;28;19919;-84
2022/11/23 10:24:55;;;;;;;;;;;;;;;;;;4953656;28;19925;-81
2022/11/23 10:27:21;;;;;;;;;;;;;;;;;;4926166;29;19966;-81
2022/11/23 10:29:46;;;;;;;;;;;;;;;;;;4942942;29;19919;-81
2022/11/23 10:32:11;;;;;;;;;;;;;;;;;;4944650;29;19943;-82
2022/11/23 10:34:37;;;;;;;;;;;;;;;;;;4952189;29;20396;-83
2022/11/23 10:37:03;;;;;;;;;;;;;;;;;;4942611;28;19903;-83
2022/11/23 10:39:30;;;;;;;;;;;;;;;;;;4927844;29;19966;-85
2022/11/23 10:44:38;;;;;;;;;;;;;;;;;;5760040;23;20021;-83
2022/11/23 10:47:03;;;;;;;;;;;;;;;;;;4981526;28;19902;-85
2022/11/23 10:52:11;;;;;;;;;;;;;;;;;;5675750;23;19911;-84
2022/11/23 10:54:36;;;;;;;;;;;;;;;;;;5193426;23;19918;-83
2022/11/23 10:57:04;;;;;;;;;;;;;;;;;;5887017;23;19948;-80
2022/11/23 11:10:34;;;;;;;;;;;;;;;;;;5306739;23;19950;-83
2022/11/23 11:13:00;;;;;;;;;;;;;;;;;;4963621;28;19938;-84
2022/11/23 11:15:27;;;;;;;;;;;;;;;;;;5082068;23;19954;-83
2022/11/23 11:23:19;;;;;;;;;;;;;;;;;;5030465;23;19910;-83
2022/11/23 11:39:58;;;;;;;;;;;;;;;;;;5343365;23;19923;-83
2022/11/23 11:45:25;;;;;;;;;;;;;;;;;;4958705;29;19911;-82
2022/11/23 11:48:03;;;;;;;;;;;;;;;;;;;;;
2022/11/23 11:58:47;;;;;;;;;;;;;;;;;;5679613;23;19947;-82
2022/11/23 12:04:06;;;;;;;;;;;;;;;;;;4917894;29;19911;-85
2022/11/23 12:09:17;;;;;;;;;;;;;;;;;;5677555;23;19990;-84
2022/11/23 12:14:27;;;;;;;;;;;;;;;;;;5272027;23;19928;-85
2022/11/23 12:16:55;;;;;;;;;;;;;;;;;;4941831;28;19919;-83
2022/11/23 12:19:23;;;;;;;;;;;;;;;;;;4956246;29;19983;-83
2022/11/23 12:21:49;;;;;;;;;;;;;;;;;;4955389;29;19914;-83
2022/11/23 12:24:17;;;;;;;;;;;;;;;;;;4972774;29;19914;-84
2022/11/23 12:29:51;;;;;;;;;;;;;;;;;;4960371;29;19974;-83
2022/11/23 12:32:17;;;;;;;;;;;;;;;;;;4961646;28;19991;-84
2022/11/23 12:35:09;;;;;;;;;;;;;;;;;;5674702;23;19926;-83
2022/11/23 12:45:58;;;;;;;;;;;;;;;;;;5888012;23;19918;-83
2022/11/23 12:48:23;;;;;;;;;;;;;;;;;;5553096;23;19930;-83
2022/11/23 12:50:50;;;;;;;;;;;;;;;;;;4945524;29;19946;-82
2022/11/23 12:53:17;;;;;;;;;;;;;;;;;;4939734;29;20393;-83
2022/11/23 12:55:44;;;;;;;;;;;;;;;;;;4955410;29;19968;-81
2022/11/23 12:58:10;;;;;;;;;;;;;;;;;;4954063;29;19915;-83
2022/11/23 13:00:40;;;;;;;;;;;;;;;;;;4971052;29;19914;-83
2022/11/23 13:03:08;;;;;;;;;;;;;;;;;;4942004;29;19915;-83
2022/11/23 13:05:41;;;;;;;;;;;;;;;;;;4945545;29;19982;-84
2022/11/23 13:08:18;;;;;;;;;;;;;;;;;;4946401;29;19926;-84
2022/11/23 13:10:46;;;;;;;;;;;;;;;;;;4975186;29;19899;-83
2022/11/23 13:13:17;;;;;;;;;;;;;;;;;;5146749;23;19962;-83
2022/11/23 13:15:46;;;;;;;;;;;;;;;;;;4963280;28;19927;-84
2022/11/23 13:18:12;;;;;;;;;;;;;;;;;;4964664;28;19949;-83
2022/11/23 13:20:37;;;;;;;;;;;;;;;;;;5470480;23;19915;-85
2022/11/23 13:23:05;;;;;;;;;;;;;;;;;;4947457;29;19924;-87
2022/11/23 13:25:31;;;;;;;;;;;;;;;;;;4930223;29;19978;-87
2022/11/23 13:27:56;;;;;;;;;;;;;;;;;;4952752;29;19922;-90
2022/11/23 13:30:21;;;;;;;;;;;;;;;;;;4919834;29;19926;-92
2022/11/23 13:32:47;;;;;;;;;;;;;;;;;;4935529;29;20383;-92
2022/11/23 13:35:12;;;;;;;;;;;;;;;;;;4918633;29;19919;-90
2022/11/23 13:37:38;;;;;;;;;;;;;;;;;;4918714;29;19927;-90
2022/11/23 13:40:03;;;;;;;;;;;;;;;;;;4936094;29;20430;-89
2022/11/23 13:42:29;;;;;;;;;;;;;;;;;;4940089;29;19915;-90
2022/11/23 13:44:54;;;;;;;;;;;;;;;;;;4923987;29;19938;-90
2022/11/23 13:47:19;;;;;;;;;;;;;;;;;;4918824;29;20418;-90
2022/11/23 13:49:45;;;;;;;;;;;;;;;;;;4935348;29;19915;-93
2022/11/23 13:52:10;;;;;;;;;;;;;;;;;;4920334;29;20318;-91
2022/11/23 13:54:36;;;;;;;;;;;;;;;;;;4933807;29;19922;-91
2022/11/23 13:57:01;;;;;;;;;;;;;;;;;;4936644;29;19919;-88
2022/11/23 13:59:27;;;;;;;;;;;;;;;;;;4942854;29;19942;-89
2022/11/23 14:01:52;;;;;;;;;;;;;;;;;;4935137;29;20375;-87
2022/11/23 14:04:17;;;;;;;;;;;;;;;;;;4959614;23;20014;-90
2022/11/23 14:06:43;;;;;;;;;;;;;;;;;;4937470;29;19915;-89
2022/11/23 14:09:08;;;;;;;;;;;;;;;;;;4920454;29;20355;-90
2022/11/23 14:11:34;;;;;;;;;;;;;;;;;;4920129;29;19933;-89
2022/11/23 14:13:59;;;;;;;;;;;;;;;;;;4919996;29;19967;-90
2022/11/23 14:16:25;;;;;;;;;;;;;;;;;;4935895;29;19919;-90
2022/11/23 14:18:50;;;;;;;;;;;;;;;;;;4920071;29;20005;-90
2022/11/23 14:21:15;;;;;;;;;;;;;;;;;;4904947;29;19950;-90
2022/11/23 14:23:41;;;;;;;;;;;;;;;;;;4937307;29;19915;-90
2022/11/23 14:26:06;;;;;;;;;;;;;;;;;;4935703;29;19914;-90
2022/11/23 14:28:31;;;;;;;;;;;;;;;;;;4935728;29;19914;-91
2022/11/23 14:30:57;;;;;;;;;;;;;;;;;;4904069;29;20355;-90
2022/11/23 14:33:22;;;;;;;;;;;;;;;;;;4936440;29;19917;-91
2022/11/23 14:35:48;;;;;;;;;;;;;;;;;;4937862;29;20343;-90
2022/11/23 14:38:13;;;;;;;;;;;;;;;;;;4936567;29;19915;-89
2022/11/23 14:40:39;;;;;;;;;;;;;;;;;;4922378;29;19919;-89
2022/11/23 14:43:04;;;;;;;;;;;;;;;;;;4920242;29;20021;-90
2022/11/23 14:45:29;;;;;;;;;;;;;;;;;;4919695;29;19915;-89
2022/11/23 14:47:55;;;;;;;;;;;;;;;;;;4936273;29;19922;-90
2022/11/23 14:50:20;;;;;;;;;;;;;;;;;;4920127;29;20302;-91
2022/11/23 14:52:46;;;;;;;;;;;;;;;;;;4920115;29;20579;-92
2022/11/23 14:55:11;;;;;;;;;;;;;;;;;;4923871;29;19922;-91
2022/11/23 14:57:37;;;;;;;;;;;;;;;;;;4917722;29;19966;-90
2022/11/23 15:00:02;;;;;;;;;;;;;;;;;;4916543;29;19997;-90
2022/11/23 15:02:28;;;;;;;;;;;;;;;;;;4901802;29;20014;-92
2022/11/23 15:04:53;;;;;;;;;;;;;;;;;;4900362;29;19931;-91
2022/11/23 15:07:19;;;;;;;;;;;;;;;;;;4917308;29;19926;-90
2022/11/23 15:09:44;;;;;;;;;;;;;;;;;;4916558;29;19919;-92
2022/11/23 15:12:09;;;;;;;;;;;;;;;;;;4916386;29;20390;-90
2022/11/23 15:14:37;;;;;;;;;;;;;;;;;;4922001;29;19935;-88
2022/11/23 15:17:03;;;;;;;;;;;;;;;;;;4939501;29;19934;-88
2022/11/23 15:19:28;;;;;;;;;;;;;;;;;;4928813;29;19915;-88
2022/11/23 15:21:53;;;;;;;;;;;;;;;;;;4899471;29;19915;-89
2022/11/23 15:24:19;;;;;;;;;;;;;;;;;;4902115;29;19919;-87
2022/11/23 15:26:45;;;;;;;;;;;;;;;;;;4905072;29;19915;-86
2022/11/23 15:29:10;;;;;;;;;;;;;;;;;;4927803;29;19945;-87
2022/11/23 15:31:36;;;;;;;;;;;;;;;;;;4916037;29;19943;-81
2022/11/23 15:34:02;;;;;;;;;;;;;;;;;;4915691;29;19938;-83
2022/11/23 15:36:28;;;;;;;;;;;;;;;;;;4915954;29;19927;-82
2022/11/23 15:38:54;;;;;;;;;;;;;;;;;;4915930;29;19921;-85
2022/11/23 15:41:20;;;;;;;;;;;;;;;;;;4922052;29;20009;-85
2022/11/23 15:43:45;;;;;;;;;;;;;;;;;;4935240;29;20014;-82
2022/11/23 15:46:11;;;;;;;;;;;;;;;;;;4935343;29;19922;-82
2022/11/23 15:48:36;;;;;;;;;;;;;;;;;;4934858;29;19915;-82
2022/11/23 15:51:02;;;;;;;;;;;;;;;;;;4935473;29;19915;-83
2022/11/23 15:53:27;;;;;;;;;;;;;;;;;;4934871;29;19953;-89
2022/11/23 15:55:53;;;;;;;;;;;;;;;;;;4933614;29;20305;-89
2022/11/23 15:58:18;;;;;;;;;;;;;;;;;;4933607;29;20001;-84
2022/11/23 16:00:44;;;;;;;;;;;;;;;;;;4901806;29;20383;-83
2022/11/23 16:03:09;;;;;;;;;;;;;;;;;;4936160;29;20434;-85
2022/11/23 16:05:34;;;;;;;;;;;;;;;;;;4935030;29;19921;-87
2022/11/23 16:08:00;;;;;;;;;;;;;;;;;;4936279;29;19922;-82
2022/11/23 16:10:25;;;;;;;;;;;;;;;;;;4936676;29;20292;-83
2022/11/23 16:12:51;;;;;;;;;;;;;;;;;;4937357;29;20007;-84
2022/11/23 16:15:16;;;;;;;;;;;;;;;;;;4935522;29;20018;-83
2022/11/23 16:17:41;;;;;;;;;;;;;;;;;;4934585;29;19947;-82
2022/11/23 16:20:07;;;;;;;;;;;;;;;;;;4935136;29;19922;-83
2022/11/23 16:22:32;;;;;;;;;;;;;;;;;;4935004;29;20306;-83
2022/11/23 16:24:58;;;;;;;;;;;;;;;;;;4934256;29;19977;-84
2022/11/23 16:27:24;;;;;;;;;;;;;;;;;;4934723;29;19911;-83
2022/11/23 16:29:49;;;;;;;;;;;;;;;;;;4934776;29;19926;-85
2022/11/23 16:32:15;;;;;;;;;;;;;;;;;;4917667;29;19915;-82
2022/11/23 16:34:40;;;;;;;;;;;;;;;;;;4917730;29;19915;-80
2022/11/23 16:37:06;;;;;;;;;;;;;;;;;;4935037;29;19965;-78
2022/11/23 16:39:31;;;;;;;;;;;;;;;;;;4935064;29;20418;-80
2022/11/23 16:41:56;;;;;;;;;;;;;;;;;;4933848;29;19970;-82
2022/11/23 16:44:22;;;;;;;;;;;;;;;;;;4934607;29;20391;-83
2022/11/23 16:46:47;;;;;;;;;;;;;;;;;;4933610;29;19915;-83
2022/11/23 16:49:12;;;;;;;;;;;;;;;;;;4933713;29;19915;-83
2022/11/23 16:51:38;;;;;;;;;;;;;;;;;;4936267;29;19942;-80
2022/11/23 16:54:03;;;;;;;;;;;;;;;;;;4938593;29;20323;-83
2022/11/23 16:56:29;;;;;;;;;;;;;;;;;;4938010;29;19922;-83
2022/11/23 16:58:54;;;;;;;;;;;;;;;;;;4938385;29;19915;-82
2022/11/23 17:01:20;;;;;;;;;;;;;;;;;;4938048;29;19926;-86
2022/11/23 17:03:45;;;;;;;;;;;;;;;;;;4937997;29;19919;-87
2022/11/23 17:06:10;;;;;;;;;;;;;;;;;;4937287;29;19911;-83
2022/11/23 17:08:36;;;;;;;;;;;;;;;;;;4938808;29;19965;-84
2022/11/23 17:11:01;;;;;;;;;;;;;;;;;;4938033;29;19938;-83
2022/11/23 17:13:27;;;;;;;;;;;;;;;;;;4921006;29;19989;-83
2022/11/23 17:15:52;;;;;;;;;;;;;;;;;;4937287;29;19918;-83
2022/11/23 17:18:18;;;;;;;;;;;;;;;;;;4938010;29;19910;-84
2022/11/23 17:20:43;;;;;;;;;;;;;;;;;;4922555;29;20232;-82
2022/11/23 17:23:09;;;;;;;;;;;;;;;;;;4936559;29;20280;-82
2022/11/23 17:25:34;;;;;;;;;;;;;;;;;;4935434;29;19919;-84
2022/11/23 17:28:00;;;;;;;;;;;;;;;;;;4913154;29;19947;-86
2022/11/23 17:30:26;;;;;;;;;;;;;;;;;;4917464;29;19923;-83
2022/11/23 17:32:51;;;;;;;;;;;;;;;;;;4928449;29;19921;-86
2022/11/23 17:35:17;;;;;;;;;;;;;;;;;;4936581;29;19962;-85
2022/11/23 17:37:42;;;;;;;;;;;;;;;;;;4937218;29;19919;-84
2022/11/23 17:40:08;;;;;;;;;;;;;;;;;;4942349;29;19911;-88
2022/11/23 17:42:33;;;;;;;;;;;;;;;;;;4939596;29;19915;-86
2022/11/23 17:44:58;;;;;;;;;;;;;;;;;;4934794;29;19915;-85
2022/11/23 17:47:24;;;;;;;;;;;;;;;;;;4910779;29;20024;-83
2022/11/23 17:49:49;;;;;;;;;;;;;;;;;;4909461;29;20328;-84
2022/11/23 17:52:15;;;;;;;;;;;;;;;;;;4925200;29;19915;-83
2022/11/23 17:54:40;;;;;;;;;;;;;;;;;;4926982;29;20380;-83
2022/11/23 17:57:06;;;;;;;;;;;;;;;;;;4944731;29;19919;-84
2022/11/23 17:59:32;;;;;;;;;;;;;;;;;;4942919;29;20009;-85
2022/11/23 18:01:58;;;;;;;;;;;;;;;;;;4944586;29;19915;-81
2022/11/23 18:04:23;;;;;;;;;;;;;;;;;;4945668;29;19918;-83
2022/11/23 18:06:48;;;;;;;;;;;;;;;;;;4944498;29;19915;-86
2022/11/23 18:09:14;;;;;;;;;;;;;;;;;;4944502;29;19953;-84
2022/11/23 18:11:39;;;;;;;;;;;;;;;;;;4936807;29;20297;-82